메인 페이지
위성 영상 10일간 예보기후바다 날씨 사이클론 낙뢰 공항FAQ 뉴스레터 소개
날씨 : 유럽 아프리카 북아메리카 남아메리카 아시아 오스트레일리아-오세아니아 기타
언어 문의하기

칭다오, 중국

칭다오 류팅 국제공항

위도: 36-04N, 경도: 120-20E, 고도: 77m


METAR: ZSQD 261300Z 16004MPS CAVOK 20/11 Q1010 NOSIG
TAF: ZSQD 260916Z 2612/2712 18005MPS 5000 BR NSC TX27/2706Z TN14/19Z

시각: 21:21 (13:21 UTC)

현재 날씨관측

예보는 21분 전, 13:00시(UTC)에 발표되었습니다.
남남동8kt
온도 20°C
습도 56%
기압 1010 hPa
시정 10km 이상
1500m 미만 상공 구름 및 적란운 없음

단위계 변경

예보

예보는 4 시간 5분 전, 09:16시(UTC)에 발표되었습니다.
예보 대상 시간: 26일 12시부터 27일 12시까지 (UTC)
10kt
시정: 5000m
박무
이 웹사이트상의 정보에 대하여 어떠한 법적 책임을 지지 않습니다 (면책 조항)
날씨 : 유럽 아프리카 북아메리카 남아메리카 아시아 오스트레일리아-오세아니아 기타
위성 영상 10일간 예보기후바다 날씨 사이클론 낙뢰 공항FAQ 언어 문의하기 뉴스레터 소개